Citta Di Savona — IMDS — position and weather

sailwx.info

Track history (hours):
 
Tides and Currents Weather Stations Pressure Air Temp Water Temp Dewpoint Dewpoint Depression Visibility Wind Speed Wind Dir Waves Ship Positions

Citta Di Savona

Last reported at 2014-Aug-23 03:26 UTC. Time now 2014-Aug-23 09:30 UTC.
Position N 44°18' E 008°29'.

Length 31 m; draft 4.2 m.

Type: Tug. MMSI: 247402000.

Date/timePositionNaut miles runAvg speedWind from/ knotsBaromVisibWave heightAir tempDewpointWater temp
2014-Aug-23 03:26N 44°18' E 008°29'2 2.2
2014-Aug-23 02:27N 44°17' E 008°28'0 0.1
2014-Aug-23 01:25N 44°17' E 008°28'2 1.1
2014-Aug-22 23:29N 44°18' E 008°29'1 0.1
2014-Aug-22 13:33N 44°19' E 008°30'4 3.0
2014-Aug-22 12:21N 44°16' E 008°27'0 0.2
2014-Aug-22 11:08N 44°16' E 008°27'0 0.0
2014-Aug-22 10:29N 44°16' E 008°27'0 0.0
2014-Aug-22 07:26N 44°16' E 008°27'1 0.7
2014-Aug-22 06:11N 44°17' E 008°28'2 0.1
2014-Aug-21 05:22N 44°18' E 008°29'0 0.0
2014-Aug-21 03:04N 44°18' E 008°29'0 0.0
2014-Aug-21 02:25N 44°18' E 008°29'0 0.0
2014-Aug-21 01:25N 44°18' E 008°29'1 0.2
2014-Aug-20 22:27N 44°19' E 008°30'1 0.1
2014-Aug-20 14:26N 44°18' E 008°29'0 0.0
2014-Aug-19 15:28N 44°18' E 008°29'1 0.8
2014-Aug-19 14:33N 44°19' E 008°30'3 2.9
2014-Aug-19 13:32N 44°16' E 008°28'0 0.1
2014-Aug-19 12:32N 44°17' E 008°28'1 0.9
2014-Aug-19 11:33N 44°16' E 008°27'0 0.2
2014-Aug-19 10:27N 44°16' E 008°27'0 0.0
2014-Aug-19 09:21N 44°16' E 008°27'0 0.0
2014-Aug-19 07:21N 44°16' E 008°27'0 0.1
2014-Aug-19 05:33N 44°16' E 008°27'3 0.4
2014-Aug-18 21:16N 44°18' E 008°29'0 0.0
2014-Aug-18 20:04N 44°18' E 008°29'0 0.0
2014-Aug-18 18:22N 44°18' E 008°29'0 0.0
2014-Aug-18 17:22N 44°18' E 008°29'0 0.0
2014-Aug-18 16:07N 44°18' E 008°29'0 0.0
2014-Aug-18 15:16N 44°18' E 008°29'0 0.0
2014-Aug-18 14:28N 44°18' E 008°29'0 0.0
2014-Aug-18 09:23N 44°18' E 008°29'2 1.6
2014-Aug-18 08:06N 44°17' E 008°28'0 0.0
2014-Aug-18 07:33N 44°17' E 008°28'0 0.4
2014-Aug-18 06:33N 44°16' E 008°28'3 3.0
2014-Aug-18 05:32N 44°18' E 008°31'1 0.1
2014-Aug-17 17:33N 44°18' E 008°29'0 0.0
2014-Aug-17 16:07N 44°18' E 008°29'0 0.0
2014-Aug-17 15:32N 44°18' E 008°29'0 0.0
2014-Aug-17 14:33N 44°18' E 008°29'0 0.0
2014-Aug-17 11:25N 44°18' E 008°29'0 0.0
2014-Aug-17 10:32N 44°18' E 008°29'0 0.0
2014-Aug-17 07:32N 44°18' E 008°29'0 0.0
2014-Aug-17 06:32N 44°18' E 008°29'0 0.0
2014-Aug-17 04:08N 44°18' E 008°29'0 0.0
2014-Aug-17 03:27N 44°18' E 008°29'0 0.0
2014-Aug-17 02:33N 44°18' E 008°29'0 0.0
2014-Aug-17 01:33N 44°18' E 008°29'0 0.0
2014-Aug-16 08:30N 44°19' E 008°29'2 2.4
2014-Aug-16 07:33N 44°17' E 008°28'1 1.1
2014-Aug-16 06:24N 44°16' E 008°28'3 2.8
2014-Aug-16 05:18N 44°18' E 008°29'0 0.0
2014-Aug-16 04:16N 44°18' E 008°29'0 0.0
2014-Aug-15 08:18N 44°18' E 008°29'0 0.0
2014-Aug-15 07:04N 44°18' E 008°29'3 2.0
2014-Aug-15 05:31N 44°16' E 008°27'3 2.3
2014-Aug-15 04:09N 44°18' E 008°29'0 0.0
2014-Aug-15 03:33N 44°18' E 008°29'0 0.0
2014-Aug-15 02:24N 44°18' E 008°29'0 0.0
2014-Aug-15 01:32N 44°18' E 008°29'0 0.0
2014-Aug-15 00:30N 44°18' E 008°29'0 0.0
2014-Aug-14 23:29N 44°18' E 008°29'0 0.0
2014-Aug-14 07:32N 44°18' E 008°29'0 0.0
2014-Aug-14 06:22N 44°18' E 008°29'0 0.0
2014-Aug-14 05:19N 44°18' E 008°29'0 0.0
2014-Aug-14 03:33N 44°18' E 008°29'0 0.0
2014-Aug-14 02:32N 44°18' E 008°29'0 0.0
2014-Aug-14 01:33N 44°18' E 008°29'0 0.0
2014-Aug-14 00:33N 44°18' E 008°29'0 0.0
2014-Aug-13 23:32N 44°18' E 008°29'0 0.0
2014-Aug-13 22:33N 44°18' E 008°29'0 0.0
2014-Aug-13 14:17N 44°18' E 008°29'1 0.6
2014-Aug-13 13:19N 44°19' E 008°30'3 2.9
2014-Aug-13 12:17N 44°16' E 008°28'0 0.3
2014-Aug-13 11:33N 44°16' E 008°27'1 0.5
2014-Aug-13 10:33N 44°16' E 008°27'1 1.1
2014-Aug-13 09:21N 44°17' E 008°29'2 1.1
2014-Aug-13 07:33N 44°18' E 008°29'0 0.0
2014-Aug-13 04:04N 44°18' E 008°29'0 0.0
2014-Aug-13 03:33N 44°18' E 008°29'  
Track history (hours):
 
Tides and Currents Weather Stations Pressure Air Temp Water Temp Dewpoint Dewpoint Depression Visibility Wind Speed Wind Dir Waves Ship Positions

Citta Di Savona

Last reported at 2014-Aug-23 03:26 UTC. Time now 2014-Aug-23 09:30 UTC.
Position N 44°18' E 008°29'.

Length 31 m; draft 4.2 m.

Type: Tug. MMSI: 247402000.

Date/timePositionNaut miles runAvg speedWind from/ knotsBaromVisibWave heightAir tempDewpointWater temp
2014-Aug-23 03:26N 44°18' E 008°29'2 2.2
2014-Aug-23 02:27N 44°17' E 008°28'0 0.1
2014-Aug-23 01:25N 44°17' E 008°28'2 1.1
2014-Aug-22 23:29N 44°18' E 008°29'1 0.1
2014-Aug-22 13:33N 44°19' E 008°30'4 3.0
2014-Aug-22 12:21N 44°16' E 008°27'0 0.2
2014-Aug-22 11:08N 44°16' E 008°27'0 0.0
2014-Aug-22 10:29N 44°16' E 008°27'0 0.0
2014-Aug-22 07:26N 44°16' E 008°27'1 0.7
2014-Aug-22 06:11N 44°17' E 008°28'2 0.1
2014-Aug-21 05:22N 44°18' E 008°29'0 0.0
2014-Aug-21 03:04N 44°18' E 008°29'0 0.0
2014-Aug-21 02:25N 44°18' E 008°29'0 0.0
2014-Aug-21 01:25N 44°18' E 008°29'1 0.2
2014-Aug-20 22:27N 44°19' E 008°30'1 0.1
2014-Aug-20 14:26N 44°18' E 008°29'0 0.0
2014-Aug-19 15:28N 44°18' E 008°29'1 0.8
2014-Aug-19 14:33N 44°19' E 008°30'3 2.9
2014-Aug-19 13:32N 44°16' E 008°28'0 0.1
2014-Aug-19 12:32N 44°17' E 008°28'1 0.9
2014-Aug-19 11:33N 44°16' E 008°27'0 0.2
2014-Aug-19 10:27N 44°16' E 008°27'0 0.0
2014-Aug-19 09:21N 44°16' E 008°27'0 0.0
2014-Aug-19 07:21N 44°16' E 008°27'0 0.1
2014-Aug-19 05:33N 44°16' E 008°27'3 0.4
2014-Aug-18 21:16N 44°18' E 008°29'0 0.0
2014-Aug-18 20:04N 44°18' E 008°29'0 0.0
2014-Aug-18 18:22N 44°18' E 008°29'0 0.0
2014-Aug-18 17:22N 44°18' E 008°29'0 0.0
2014-Aug-18 16:07N 44°18' E 008°29'0 0.0
2014-Aug-18 15:16N 44°18' E 008°29'0 0.0
2014-Aug-18 14:28N 44°18' E 008°29'0 0.0
2014-Aug-18 09:23N 44°18' E 008°29'2 1.6
2014-Aug-18 08:06N 44°17' E 008°28'0 0.0
2014-Aug-18 07:33N 44°17' E 008°28'0 0.4
2014-Aug-18 06:33N 44°16' E 008°28'3 3.0
2014-Aug-18 05:32N 44°18' E 008°31'1 0.1
2014-Aug-17 17:33N 44°18' E 008°29'0 0.0
2014-Aug-17 16:07N 44°18' E 008°29'0 0.0
2014-Aug-17 15:32N 44°18' E 008°29'0 0.0
2014-Aug-17 14:33N 44°18' E 008°29'0 0.0
2014-Aug-17 11:25N 44°18' E 008°29'0 0.0
2014-Aug-17 10:32N 44°18' E 008°29'0 0.0
2014-Aug-17 07:32N 44°18' E 008°29'0 0.0
2014-Aug-17 06:32N 44°18' E 008°29'0 0.0
2014-Aug-17 04:08N 44°18' E 008°29'0 0.0
2014-Aug-17 03:27N 44°18' E 008°29'0 0.0
2014-Aug-17 02:33N 44°18' E 008°29'0 0.0
2014-Aug-17 01:33N 44°18' E 008°29'0 0.0
2014-Aug-16 08:30N 44°19' E 008°29'2 2.4
2014-Aug-16 07:33N 44°17' E 008°28'1 1.1
2014-Aug-16 06:24N 44°16' E 008°28'3 2.8
2014-Aug-16 05:18N 44°18' E 008°29'0 0.0
2014-Aug-16 04:16N 44°18' E 008°29'0 0.0
2014-Aug-15 08:18N 44°18' E 008°29'0 0.0
2014-Aug-15 07:04N 44°18' E 008°29'3 2.0
2014-Aug-15 05:31N 44°16' E 008°27'3 2.3
2014-Aug-15 04:09N 44°18' E 008°29'0 0.0
2014-Aug-15 03:33N 44°18' E 008°29'0 0.0
2014-Aug-15 02:24N 44°18' E 008°29'0 0.0
2014-Aug-15 01:32N 44°18' E 008°29'0 0.0
2014-Aug-15 00:30N 44°18' E 008°29'0 0.0
2014-Aug-14 23:29N 44°18' E 008°29'0 0.0
2014-Aug-14 07:32N 44°18' E 008°29'0 0.0
2014-Aug-14 06:22N 44°18' E 008°29'0 0.0
2014-Aug-14 05:19N 44°18' E 008°29'0 0.0
2014-Aug-14 03:33N 44°18' E 008°29'0 0.0
2014-Aug-14 02:32N 44°18' E 008°29'0 0.0
2014-Aug-14 01:33N 44°18' E 008°29'0 0.0
2014-Aug-14 00:33N 44°18' E 008°29'0 0.0
2014-Aug-13 23:32N 44°18' E 008°29'0 0.0
2014-Aug-13 22:33N 44°18' E 008°29'0 0.0
2014-Aug-13 14:17N 44°18' E 008°29'1 0.6
2014-Aug-13 13:19N 44°19' E 008°30'3 2.9
2014-Aug-13 12:17N 44°16' E 008°28'0 0.3
2014-Aug-13 11:33N 44°16' E 008°27'1 0.5
2014-Aug-13 10:33N 44°16' E 008°27'1 1.1
2014-Aug-13 09:21N 44°17' E 008°29'2 1.1
2014-Aug-13 07:33N 44°18' E 008°29'0 0.0
2014-Aug-13 04:04N 44°18' E 008°29'0 0.0
2014-Aug-13 03:33N 44°18' E 008°29'  

Dump ship's entire track history